createdAt,value
2018-03-15T00:03:01.318Z,5.22
2018-03-15T00:08:52.130Z,5.5
2018-03-15T00:14:42.997Z,6.36
2018-03-15T00:20:33.820Z,5.26
2018-03-15T00:26:24.678Z,6.55
2018-03-15T00:32:15.554Z,6.02
2018-03-15T00:38:06.395Z,5.53
2018-03-15T00:43:57.238Z,6.01
2018-03-15T00:49:48.120Z,5.24
2018-03-15T00:55:38.927Z,6.02
2018-03-15T01:01:29.792Z,5.4
2018-03-15T01:07:20.593Z,5.63
2018-03-15T01:13:11.596Z,5.29
2018-03-15T01:19:02.317Z,5.86
2018-03-15T01:24:53.169Z,5.04
2018-03-15T01:30:44.052Z,4.86
2018-03-15T01:36:34.870Z,5.26
2018-03-15T01:42:25.711Z,5.07
2018-03-15T01:48:16.640Z,6.22
2018-03-15T01:54:07.426Z,6.3
2018-03-15T01:59:58.279Z,6.12
2018-03-15T02:05:49.101Z,5.32
2018-03-15T02:11:39.950Z,6.46
2018-03-15T02:17:30.792Z,6.96
2018-03-15T02:23:21.669Z,6.44
2018-03-15T02:29:12.551Z,6.6
2018-03-15T02:35:03.311Z,6.75
2018-03-15T02:40:54.155Z,6.53
2018-03-15T02:46:45.017Z,5.9
2018-03-15T02:52:35.868Z,6.76
2018-03-15T02:58:26.687Z,6.96
2018-03-15T03:04:17.611Z,7.83
2018-03-15T03:10:08.406Z,7.19
2018-03-15T03:15:59.288Z,7.81
2018-03-15T03:21:50.104Z,6.64
2018-03-15T03:27:40.951Z,6.11
2018-03-15T03:33:31.785Z,7.04
2018-03-15T03:39:22.614Z,5.78
2018-03-15T03:45:13.461Z,5.54
2018-03-15T03:51:04.279Z,5.93
2018-03-15T03:56:55.117Z,5.94
2018-03-15T04:02:45.991Z,5.74
2018-03-15T04:08:36.844Z,5.43
2018-03-15T04:14:27.675Z,4.85
2018-03-15T04:20:18.510Z,5.41
2018-03-15T04:26:09.355Z,4.79
2018-03-15T04:32:00.154Z,4.65
2018-03-15T04:37:51.018Z,5.99
2018-03-15T04:43:41.862Z,5.54
2018-03-15T04:49:32.718Z,5.83
2018-03-15T04:55:23.556Z,6.44
2018-03-15T05:01:14.384Z,5.51
2018-03-15T05:07:05.216Z,6.25
2018-03-15T05:12:56.116Z,6.56
2018-03-15T05:18:46.927Z,5.99
2018-03-15T05:24:37.818Z,6.03
2018-03-15T05:30:28.630Z,7.12
2018-03-15T05:36:19.443Z,7.78
2018-03-15T05:42:10.325Z,7.37
2018-03-15T05:48:01.145Z,7.09
2018-03-15T05:53:52.025Z,7.72
2018-03-15T05:59:42.835Z,7.84
2018-03-15T06:05:33.654Z,5.83
2018-03-15T06:11:24.551Z,6.3
2018-03-15T06:17:15.394Z,5.41
2018-03-15T06:23:06.233Z,5.95
2018-03-15T06:28:57.094Z,5.78
2018-03-15T06:34:47.932Z,5.43
2018-03-15T06:40:38.764Z,5.97
2018-03-15T06:46:29.667Z,5.51
2018-03-15T06:52:20.460Z,7.78
2018-03-15T06:58:11.304Z,6.24
2018-03-15T07:04:02.156Z,5.59
2018-03-15T07:09:53.012Z,5.65
2018-03-15T07:15:43.839Z,6.72
2018-03-15T07:21:34.700Z,8.6
2018-03-15T07:27:25.503Z,10.33
2018-03-15T07:33:16.376Z,14.42
2018-03-15T07:39:07.196Z,16.25
2018-03-15T07:44:58.103Z,17.64
2018-03-15T07:50:48.945Z,15.93
2018-03-15T07:56:39.765Z,15.54
2018-03-15T08:02:30.620Z,17.8
2018-03-15T08:08:21.433Z,19.34
2018-03-15T08:14:12.307Z,18.64
2018-03-15T08:20:03.164Z,21.05
2018-03-15T08:25:53.986Z,19.89
2018-03-15T08:31:44.867Z,19.67
2018-03-15T08:37:35.694Z,18
2018-03-15T08:43:26.536Z,18.08
2018-03-15T08:49:17.395Z,20.29
2018-03-15T08:55:08.272Z,22.42
2018-03-15T09:00:59.092Z,26.86
2018-03-15T09:06:49.920Z,23.43
2018-03-15T09:12:40.824Z,19.78
2018-03-15T09:18:31.631Z,19.85
2018-03-15T09:24:22.475Z,19.45
2018-03-15T09:30:13.374Z,17.6
2018-03-15T09:36:04.193Z,17.5
2018-03-15T09:41:55.062Z,19.14
2018-03-15T09:47:45.855Z,16.61
2018-03-15T09:53:36.764Z,20.27
2018-03-15T09:59:27.601Z,17.64
2018-03-15T10:05:18.456Z,16.84
2018-03-15T10:11:09.347Z,18.01
2018-03-15T10:17:00.149Z,21.98
2018-03-15T10:22:50.993Z,17.41
2018-03-15T10:28:41.863Z,15.32
2018-03-15T10:34:32.695Z,12.1
2018-03-15T10:40:23.549Z,11.06
2018-03-15T10:46:14.476Z,11.5
2018-03-15T10:52:05.256Z,8.63
2018-03-15T10:57:56.190Z,8.6
2018-03-15T11:03:47.036Z,8.71
2018-03-15T11:09:37.833Z,9.32
2018-03-15T11:15:28.727Z,7.44
2018-03-15T11:21:19.563Z,8.71
2018-03-15T11:27:10.442Z,10.74
2018-03-15T11:33:01.309Z,11.04
2018-03-15T11:38:52.200Z,13.91
2018-03-15T11:44:43.001Z,12.77
2018-03-15T11:50:33.862Z,14.44
2018-03-15T11:56:24.679Z,17.35
2018-03-15T12:02:15.590Z,21.06
2018-03-15T12:08:06.479Z,22.91
2018-03-15T12:13:57.278Z,21.14
2018-03-15T12:19:48.154Z,23.34
2018-03-15T12:25:38.957Z,24.68
2018-03-15T12:31:29.860Z,28.16
2018-03-15T12:37:20.707Z,25.91
2018-03-15T12:43:11.588Z,22.4
2018-03-15T12:49:02.442Z,17.92
2018-03-15T12:54:53.263Z,17.86
2018-03-15T13:00:44.113Z,15.2
2018-03-15T13:06:34.995Z,24.36
2018-03-15T13:12:25.794Z,24.15
2018-03-15T13:18:16.667Z,22
2018-03-15T13:24:07.521Z,20.66
2018-03-15T13:29:58.454Z,21
2018-03-15T13:35:49.284Z,22.12
2018-03-15T13:41:40.090Z,24.99
2018-03-15T13:47:30.985Z,26.93
2018-03-15T13:53:21.818Z,27.26
2018-03-15T13:59:12.672Z,24.59
2018-03-15T14:05:03.540Z,28.93
2018-03-15T14:10:54.448Z,36.14
2018-03-15T14:16:45.246Z,33.69
2018-03-15T14:22:36.099Z,32.64
2018-03-15T14:28:26.952Z,39.02
2018-03-15T14:34:17.820Z,38.69
2018-03-15T14:40:08.699Z,31.53
2018-03-15T14:45:59.504Z,27.4
2018-03-15T14:51:50.365Z,34.59
2018-03-15T14:57:41.261Z,33.9
2018-03-15T15:03:32.123Z,28.34
2018-03-15T15:09:22.984Z,28.41
2018-03-15T15:15:13.830Z,22.78
2018-03-15T15:21:04.663Z,21.4
2018-03-15T15:26:55.485Z,17.72
2018-03-15T15:32:46.391Z,15.55
2018-03-15T15:38:37.203Z,13.1
2018-03-15T15:44:28.083Z,10.62
2018-03-15T15:50:18.898Z,9.13
2018-03-15T15:56:09.795Z,7.96
2018-03-15T16:02:00.748Z,7.78
2018-03-15T16:07:51.542Z,6.85
2018-03-15T16:13:42.357Z,8.2
2018-03-15T16:19:33.254Z,7.37
2018-03-15T16:25:24.080Z,7.36
2018-03-15T16:31:15.014Z,7.44
2018-03-15T16:37:05.734Z,8.02
2018-03-15T16:42:56.599Z,7.57
2018-03-15T16:48:47.470Z,6.93
2018-03-15T16:54:38.335Z,7.03
2018-03-15T17:00:29.192Z,8.68
2018-03-15T17:06:20.017Z,7.44
2018-03-15T17:12:10.937Z,7.36
2018-03-15T17:18:01.749Z,6.77
2018-03-15T17:23:52.592Z,7.94
2018-03-15T17:29:43.531Z,6.46
2018-03-15T17:35:34.308Z,8.83
2018-03-15T17:41:25.205Z,8.09
2018-03-15T17:47:16.006Z,8.67
2018-03-15T17:53:06.856Z,8.09
2018-03-15T17:58:57.734Z,6.74
2018-03-15T18:04:48.566Z,8.15
2018-03-15T18:10:39.453Z,8.56
2018-03-15T18:16:30.360Z,5.85
2018-03-15T18:22:21.121Z,6.2
2018-03-15T18:28:11.990Z,5.71
2018-03-15T18:34:02.832Z,6.04
2018-03-15T18:39:53.656Z,6.64
2018-03-15T18:45:44.532Z,6.8
2018-03-15T18:51:35.364Z,6.2
2018-03-15T18:57:26.243Z,6.01
2018-03-15T19:03:17.077Z,6.37
2018-03-15T19:09:07.928Z,6.76
2018-03-15T19:14:58.799Z,6.92
2018-03-15T19:20:49.643Z,8.03
2018-03-15T19:26:40.513Z,6.32
2018-03-15T19:32:31.343Z,5.38
2018-03-15T19:38:22.210Z,5.96
2018-03-15T19:44:13.056Z,5.44
2018-03-15T19:50:03.971Z,6.14
2018-03-15T19:55:54.763Z,6.81
2018-03-15T20:01:45.643Z,6.59
2018-03-15T20:07:36.472Z,5.73
2018-03-15T20:13:27.351Z,5.43
2018-03-15T20:19:18.165Z,4.91
2018-03-15T20:25:09.037Z,5.03
2018-03-15T20:30:59.899Z,6
2018-03-15T20:36:50.752Z,5.56
2018-03-15T20:42:41.573Z,5.66
2018-03-15T20:48:32.439Z,4.97
2018-03-15T20:54:23.278Z,4.8
2018-03-15T21:00:14.167Z,6.06
2018-03-15T21:06:05.019Z,5.25
2018-03-15T21:11:55.883Z,4.7
2018-03-15T21:17:46.713Z,5.29
2018-03-15T21:23:37.600Z,5.31
2018-03-15T21:29:28.447Z,4.84
2018-03-15T21:35:19.317Z,5.25
2018-03-15T21:41:10.118Z,5.48
2018-03-15T21:47:01.031Z,5.02
2018-03-15T21:52:51.810Z,4.52
2018-03-15T21:58:42.668Z,5.18
2018-03-15T22:04:33.541Z,5.61
2018-03-15T22:10:24.428Z,4.88
2018-03-15T22:16:15.258Z,5.02
2018-03-15T22:22:06.111Z,4.31
2018-03-15T22:27:56.964Z,4.06
2018-03-15T22:33:47.846Z,4.31
2018-03-15T22:39:38.714Z,3.6
2018-03-15T22:45:29.539Z,3.17
2018-03-15T22:51:20.413Z,3.6
2018-03-15T22:57:11.238Z,3.17
2018-03-15T23:03:02.106Z,3.55
2018-03-15T23:08:52.957Z,3.16
2018-03-15T23:14:43.789Z,3.57
2018-03-15T23:20:34.724Z,3.67
2018-03-15T23:26:25.552Z,3.68
2018-03-15T23:32:16.328Z,3.5
2018-03-15T23:38:07.237Z,2.83
2018-03-15T23:43:58.079Z,3.12
2018-03-15T23:49:48.924Z,3.28
2018-03-15T23:55:39.752Z,3.49
